sensor_id;sensor_type;location;lat;lon;timestamp;pressure;altitude;pressure_sealevel;temperature;humidity
41830;BME280;38614;43.472;23.936;2022-07-29T00:01:00;100106.09;;;23.47;nan
41830;BME280;38614;43.472;23.936;2022-07-29T00:03:48;100102.13;;;23.31;nan
41830;BME280;38614;43.472;23.936;2022-07-29T00:06:36;100118.13;;;23.35;nan
41830;BME280;38614;43.472;23.936;2022-07-29T00:09:23;100122.31;;;23.30;nan
41830;BME280;38614;43.472;23.936;2022-07-29T00:12:11;100086.84;;;23.16;nan
41830;BME280;38614;43.472;23.936;2022-07-29T00:14:59;100116.41;;;23.24;nan
41830;BME280;38614;43.472;23.936;2022-07-29T00:17:47;100121.84;;;23.31;nan
41830;BME280;38614;43.472;23.936;2022-07-29T00:20:35;100097.31;;;23.16;nan
41830;BME280;38614;43.472;23.936;2022-07-29T00:28:59;100086.66;;;22.94;nan
41830;BME280;38614;43.472;23.936;2022-07-29T00:32:07;100099.19;;;22.93;nan
41830;BME280;38614;43.472;23.936;2022-07-29T00:38:00;100127.97;;;23.01;nan
41830;BME280;38614;43.472;23.936;2022-07-29T00:40:48;100119.59;;;22.97;nan
41830;BME280;38614;43.472;23.936;2022-07-29T00:43:36;100127.34;;;22.93;nan
41830;BME280;38614;43.472;23.936;2022-07-29T00:46:23;100131.88;;;22.58;nan
41830;BME280;38614;43.472;23.936;2022-07-29T00:49:11;100141.66;;;22.54;nan
41830;BME280;38614;43.472;23.936;2022-07-29T00:52:01;100111.81;;;22.40;nan
41830;BME280;38614;43.472;23.936;2022-07-29T00:54:49;100145.16;;;22.58;nan
41830;BME280;38614;43.472;23.936;2022-07-29T01:03:13;100177.63;;;22.30;nan
41830;BME280;38614;43.472;23.936;2022-07-29T01:06:01;100144.50;;;22.01;nan
41830;BME280;38614;43.472;23.936;2022-07-29T01:08:50;100156.63;;;21.98;nan
41830;BME280;38614;43.472;23.936;2022-07-29T01:11:38;100147.63;;;21.87;nan
41830;BME280;38614;43.472;23.936;2022-07-29T01:14:28;100149.25;;;21.68;nan
41830;BME280;38614;43.472;23.936;2022-07-29T01:21:05;100154.91;;;21.84;nan
41830;BME280;38614;43.472;23.936;2022-07-29T01:27:25;100154.22;;;21.80;nan
41830;BME280;38614;43.472;23.936;2022-07-29T01:30:21;100174.97;;;21.86;nan
41830;BME280;38614;43.472;23.936;2022-07-29T01:33:13;100162.91;;;21.70;nan
41830;BME280;38614;43.472;23.936;2022-07-29T01:39:35;100162.38;;;21.55;nan
41830;BME280;38614;43.472;23.936;2022-07-29T01:45:37;100158.22;;;21.63;nan
41830;BME280;38614;43.472;23.936;2022-07-29T01:54:19;100122.13;;;21.42;nan
41830;BME280;38614;43.472;23.936;2022-07-29T01:57:11;100156.84;;;21.51;nan
41830;BME280;38614;43.472;23.936;2022-07-29T02:00:00;100119.00;;;21.36;nan
41830;BME280;38614;43.472;23.936;2022-07-29T02:02:59;100162.91;;;21.50;nan
41830;BME280;38614;43.472;23.936;2022-07-29T02:05:51;100141.47;;;21.56;nan
41830;BME280;38614;43.472;23.936;2022-07-29T02:08:40;100144.09;;;21.47;nan
41830;BME280;38614;43.472;23.936;2022-07-29T02:11:30;100122.81;;;21.26;nan
41830;BME280;38614;43.472;23.936;2022-07-29T02:14:20;100120.81;;;21.26;nan
41830;BME280;38614;43.472;23.936;2022-07-29T02:19:59;100148.69;;;21.37;nan
41830;BME280;38614;43.472;23.936;2022-07-29T02:22:49;100148.34;;;21.35;nan
41830;BME280;38614;43.472;23.936;2022-07-29T02:25:41;100169.00;;;21.25;nan
41830;BME280;38614;43.472;23.936;2022-07-29T02:31:21;100146.00;;;21.10;nan
41830;BME280;38614;43.472;23.936;2022-07-29T02:34:10;100148.81;;;21.10;nan
41830;BME280;38614;43.472;23.936;2022-07-29T02:39:58;100155.59;;;21.13;nan
41830;BME280;38614;43.472;23.936;2022-07-29T02:42:46;100158.19;;;21.23;nan
41830;BME280;38614;43.472;23.936;2022-07-29T02:51:23;100139.66;;;21.06;nan
41830;BME280;38614;43.472;23.936;2022-07-29T02:54:38;100150.38;;;21.11;nan
41830;BME280;38614;43.472;23.936;2022-07-29T02:57:41;100149.81;;;21.20;nan
41830;BME280;38614;43.472;23.936;2022-07-29T03:00:42;100063.69;;;20.50;nan
41830;BME280;38614;43.472;23.936;2022-07-29T03:03:35;100151.13;;;21.15;nan
41830;BME280;38614;43.472;23.936;2022-07-29T03:06:25;100146.66;;;21.18;nan
41830;BME280;38614;43.472;23.936;2022-07-29T03:09:25;100153.28;;;21.08;nan
41830;BME280;38614;43.472;23.936;2022-07-29T03:12:14;100130.22;;;20.96;nan
41830;BME280;38614;43.472;23.936;2022-07-29T03:15:02;100162.34;;;20.95;nan
41830;BME280;38614;43.472;23.936;2022-07-29T03:17:51;100153.72;;;20.83;nan
41830;BME280;38614;43.472;23.936;2022-07-29T03:20:40;100141.50;;;20.93;nan
41830;BME280;38614;43.472;23.936;2022-07-29T03:23:28;100139.06;;;20.95;nan
41830;BME280;38614;43.472;23.936;2022-07-29T03:26:19;100146.72;;;20.94;nan
41830;BME280;38614;43.472;23.936;2022-07-29T03:29:07;100148.09;;;20.83;nan
41830;BME280;38614;43.472;23.936;2022-07-29T03:31:54;100158.56;;;20.82;nan
41830;BME280;38614;43.472;23.936;2022-07-29T03:34:42;100149.41;;;20.78;nan
41830;BME280;38614;43.472;23.936;2022-07-29T03:37:30;100090.25;;;20.42;nan
41830;BME280;38614;43.472;23.936;2022-07-29T03:40:27;100117.19;;;20.63;nan
41830;BME280;38614;43.472;23.936;2022-07-29T03:43:20;100163.19;;;20.92;nan
41830;BME280;38614;43.472;23.936;2022-07-29T03:46:10;100162.34;;;20.95;nan
41830;BME280;38614;43.472;23.936;2022-07-29T03:49:01;100145.97;;;20.90;nan
41830;BME280;38614;43.472;23.936;2022-07-29T03:51:50;100172.00;;;20.94;nan
41830;BME280;38614;43.472;23.936;2022-07-29T03:54:38;100133.22;;;20.86;nan
41830;BME280;38614;43.472;23.936;2022-07-29T03:57:27;100172.72;;;20.98;nan
41830;BME280;38614;43.472;23.936;2022-07-29T04:03:04;100153.81;;;21.22;nan
41830;BME280;38614;43.472;23.936;2022-07-29T04:06:05;100174.44;;;21.12;nan
41830;BME280;38614;43.472;23.936;2022-07-29T04:08:53;100164.50;;;21.08;nan
41830;BME280;38614;43.472;23.936;2022-07-29T04:11:43;100153.06;;;21.18;nan
41830;BME280;38614;43.472;23.936;2022-07-29T04:14:47;100161.13;;;21.16;nan
41830;BME280;38614;43.472;23.936;2022-07-29T04:17:35;100179.41;;;21.28;nan
41830;BME280;38614;43.472;23.936;2022-07-29T04:20:23;100171.97;;;21.38;nan
41830;BME280;38614;43.472;23.936;2022-07-29T04:25:59;100159.41;;;21.22;nan
41830;BME280;38614;43.472;23.936;2022-07-29T04:28:48;100165.88;;;21.43;nan
41830;BME280;38614;43.472;23.936;2022-07-29T04:31:35;100173.28;;;21.53;nan
41830;BME280;38614;43.472;23.936;2022-07-29T04:37:14;100178.03;;;21.56;nan
41830;BME280;38614;43.472;23.936;2022-07-29T04:42:49;100185.25;;;21.57;nan
41830;BME280;38614;43.472;23.936;2022-07-29T04:45:37;100162.53;;;21.48;nan
41830;BME280;38614;43.472;23.936;2022-07-29T04:48:25;100188.28;;;21.46;nan
41830;BME280;38614;43.472;23.936;2022-07-29T04:51:15;100196.66;;;21.50;nan
41830;BME280;38614;43.472;23.936;2022-07-29T04:54:03;100192.97;;;21.53;nan
41830;BME280;38614;43.472;23.936;2022-07-29T04:56:54;100182.72;;;21.43;nan
41830;BME280;38614;43.472;23.936;2022-07-29T04:59:41;100200.16;;;21.54;nan
41830;BME280;38614;43.472;23.936;2022-07-29T05:02:29;100181.78;;;21.49;nan
41830;BME280;38614;43.472;23.936;2022-07-29T05:05:17;100216.03;;;21.64;nan
41830;BME280;38614;43.472;23.936;2022-07-29T05:08:04;100210.97;;;21.55;nan
41830;BME280;38614;43.472;23.936;2022-07-29T05:10:52;100193.19;;;21.62;nan
41830;BME280;38614;43.472;23.936;2022-07-29T05:13:40;100210.16;;;21.95;nan
41830;BME280;38614;43.472;23.936;2022-07-29T05:16:32;100204.16;;;22.12;nan
41830;BME280;38614;43.472;23.936;2022-07-29T05:19:20;100212.34;;;22.23;nan
41830;BME280;38614;43.472;23.936;2022-07-29T05:22:10;100177.13;;;21.99;nan
41830;BME280;38614;43.472;23.936;2022-07-29T05:24:58;100206.38;;;22.21;nan
41830;BME280;38614;43.472;23.936;2022-07-29T05:27:47;100219.06;;;22.29;nan
41830;BME280;38614;43.472;23.936;2022-07-29T05:30:35;100213.34;;;22.49;nan
41830;BME280;38614;43.472;23.936;2022-07-29T05:33:23;100192.53;;;22.63;nan
41830;BME280;38614;43.472;23.936;2022-07-29T05:36:22;100219.22;;;22.91;nan
41830;BME280;38614;43.472;23.936;2022-07-29T05:39:10;100217.25;;;22.71;nan
41830;BME280;38614;43.472;23.936;2022-07-29T05:41:57;100214.31;;;23.08;nan
41830;BME280;38614;43.472;23.936;2022-07-29T05:44:45;100213.69;;;23.16;nan
41830;BME280;38614;43.472;23.936;2022-07-29T05:47:34;100215.06;;;23.24;nan
41830;BME280;38614;43.472;23.936;2022-07-29T05:50:22;100214.78;;;23.35;nan
41830;BME280;38614;43.472;23.936;2022-07-29T05:53:10;100224.09;;;23.48;nan
41830;BME280;38614;43.472;23.936;2022-07-29T05:56:06;100233.75;;;23.64;nan
41830;BME280;38614;43.472;23.936;2022-07-29T05:58:54;100222.19;;;23.87;nan
41830;BME280;38614;43.472;23.936;2022-07-29T06:01:42;100207.63;;;23.76;nan
41830;BME280;38614;43.472;23.936;2022-07-29T06:04:31;100197.59;;;24.00;nan
41830;BME280;38614;43.472;23.936;2022-07-29T06:07:22;100221.13;;;24.23;nan
41830;BME280;38614;43.472;23.936;2022-07-29T06:10:09;100234.16;;;24.58;nan
41830;BME280;38614;43.472;23.936;2022-07-29T06:12:57;100227.84;;;25.01;nan
41830;BME280;38614;43.472;23.936;2022-07-29T06:15:45;100224.78;;;25.43;nan
41830;BME280;38614;43.472;23.936;2022-07-29T06:18:33;100233.38;;;25.74;nan
41830;BME280;38614;43.472;23.936;2022-07-29T06:21:20;100229.72;;;25.96;nan
41830;BME280;38614;43.472;23.936;2022-07-29T06:24:13;100220.88;;;25.84;nan
41830;BME280;38614;43.472;23.936;2022-07-29T06:27:01;100228.56;;;26.15;nan
41830;BME280;38614;43.472;23.936;2022-07-29T06:30:04;100233.13;;;26.12;nan
41830;BME280;38614;43.472;23.936;2022-07-29T06:32:58;100215.31;;;26.03;nan
41830;BME280;38614;43.472;23.936;2022-07-29T06:35:49;100237.13;;;26.24;nan
41830;BME280;38614;43.472;23.936;2022-07-29T06:38:40;100236.94;;;26.19;nan
41830;BME280;38614;43.472;23.936;2022-07-29T06:41:36;100233.41;;;26.05;nan
41830;BME280;38614;43.472;23.936;2022-07-29T06:44:28;100208.28;;;25.64;nan
41830;BME280;38614;43.472;23.936;2022-07-29T06:47:20;100234.31;;;25.71;nan
41830;BME280;38614;43.472;23.936;2022-07-29T06:50:08;100194.91;;;25.86;nan
41830;BME280;38614;43.472;23.936;2022-07-29T06:52:59;100228.22;;;26.35;nan
41830;BME280;38614;43.472;23.936;2022-07-29T06:55:46;100212.44;;;26.25;nan
41830;BME280;38614;43.472;23.936;2022-07-29T06:58:35;100208.44;;;26.13;nan
41830;BME280;38614;43.472;23.936;2022-07-29T07:01:23;100215.44;;;26.30;nan
41830;BME280;38614;43.472;23.936;2022-07-29T07:04:11;100232.34;;;26.43;nan
41830;BME280;38614;43.472;23.936;2022-07-29T07:06:59;100226.59;;;27.14;nan
41830;BME280;38614;43.472;23.936;2022-07-29T07:09:47;100207.22;;;27.31;nan
41830;BME280;38614;43.472;23.936;2022-07-29T07:12:34;100213.50;;;27.72;nan
41830;BME280;38614;43.472;23.936;2022-07-29T07:15:22;100222.94;;;27.96;nan
41830;BME280;38614;43.472;23.936;2022-07-29T07:18:24;100197.03;;;28.03;nan
41830;BME280;38614;43.472;23.936;2022-07-29T07:21:15;100180.81;;;28.28;nan
41830;BME280;38614;43.472;23.936;2022-07-29T07:24:05;100220.84;;;28.57;nan
41830;BME280;38614;43.472;23.936;2022-07-29T07:26:53;100219.91;;;29.08;nan
41830;BME280;38614;43.472;23.936;2022-07-29T07:29:41;100199.88;;;29.03;nan
41830;BME280;38614;43.472;23.936;2022-07-29T07:32:32;100220.59;;;29.42;nan
41830;BME280;38614;43.472;23.936;2022-07-29T07:35:22;100218.25;;;30.08;nan
41830;BME280;38614;43.472;23.936;2022-07-29T07:38:16;100221.16;;;29.99;nan
41830;BME280;38614;43.472;23.936;2022-07-29T07:41:03;100219.47;;;29.93;nan
41830;BME280;38614;43.472;23.936;2022-07-29T07:43:51;100223.41;;;29.80;nan
41830;BME280;38614;43.472;23.936;2022-07-29T07:46:39;100208.97;;;30.14;nan
41830;BME280;38614;43.472;23.936;2022-07-29T07:49:26;100200.25;;;30.52;nan
41830;BME280;38614;43.472;23.936;2022-07-29T07:52:16;100220.03;;;30.56;nan
41830;BME280;38614;43.472;23.936;2022-07-29T07:55:04;100217.91;;;30.21;nan
41830;BME280;38614;43.472;23.936;2022-07-29T07:57:55;100214.84;;;30.40;nan
41830;BME280;38614;43.472;23.936;2022-07-29T08:00:43;100209.41;;;30.56;nan
41830;BME280;38614;43.472;23.936;2022-07-29T08:03:30;100225.34;;;30.48;nan
41830;BME280;38614;43.472;23.936;2022-07-29T08:06:21;100224.59;;;31.03;nan
41830;BME280;38614;43.472;23.936;2022-07-29T08:09:16;100210.09;;;31.07;nan
41830;BME280;38614;43.472;23.936;2022-07-29T08:12:21;100203.41;;;31.10;nan
41830;BME280;38614;43.472;23.936;2022-07-29T08:15:09;100206.81;;;31.14;nan
41830;BME280;38614;43.472;23.936;2022-07-29T08:17:56;100195.59;;;30.70;nan
41830;BME280;38614;43.472;23.936;2022-07-29T08:20:44;100203.91;;;31.49;nan
41830;BME280;38614;43.472;23.936;2022-07-29T08:23:32;100188.72;;;31.37;nan
41830;BME280;38614;43.472;23.936;2022-07-29T08:26:33;100213.09;;;31.59;nan
41830;BME280;38614;43.472;23.936;2022-07-29T08:29:21;100198.81;;;31.59;nan
41830;BME280;38614;43.472;23.936;2022-07-29T08:32:08;100209.28;;;31.67;nan
41830;BME280;38614;43.472;23.936;2022-07-29T08:34:56;100210.78;;;32.15;nan
41830;BME280;38614;43.472;23.936;2022-07-29T08:37:44;100199.94;;;32.24;nan
41830;BME280;38614;43.472;23.936;2022-07-29T08:40:32;100197.94;;;32.30;nan
41830;BME280;38614;43.472;23.936;2022-07-29T08:43:21;100204.63;;;32.59;nan
41830;BME280;38614;43.472;23.936;2022-07-29T08:46:09;100203.41;;;32.34;nan
41830;BME280;38614;43.472;23.936;2022-07-29T08:48:58;100211.56;;;32.15;nan
41830;BME280;38614;43.472;23.936;2022-07-29T08:51:46;100188.34;;;32.02;nan
41830;BME280;38614;43.472;23.936;2022-07-29T08:54:36;100185.94;;;31.95;nan
41830;BME280;38614;43.472;23.936;2022-07-29T08:57:24;100176.78;;;31.91;nan
41830;BME280;38614;43.472;23.936;2022-07-29T09:00:13;100182.19;;;32.15;nan
41830;BME280;38614;43.472;23.936;2022-07-29T09:03:04;100171.97;;;32.82;nan
41830;BME280;38614;43.472;23.936;2022-07-29T09:08:40;100185.91;;;33.06;nan
41830;BME280;38614;43.472;23.936;2022-07-29T09:11:28;100183.25;;;33.79;nan
41830;BME280;38614;43.472;23.936;2022-07-29T09:14:16;100175.94;;;33.84;nan
41830;BME280;38614;43.472;23.936;2022-07-29T09:17:04;100177.78;;;34.04;nan
41830;BME280;38614;43.472;23.936;2022-07-29T09:20:08;100171.75;;;33.62;nan
41830;BME280;38614;43.472;23.936;2022-07-29T09:22:55;100142.34;;;33.73;nan
41830;BME280;38614;43.472;23.936;2022-07-29T09:25:43;100165.78;;;33.60;nan
41830;BME280;38614;43.472;23.936;2022-07-29T09:28:31;100157.16;;;33.66;nan
41830;BME280;38614;43.472;23.936;2022-07-29T09:31:31;100147.53;;;33.58;nan
41830;BME280;38614;43.472;23.936;2022-07-29T09:37:11;100142.56;;;33.47;nan
41830;BME280;38614;43.472;23.936;2022-07-29T09:39:59;100163.44;;;33.76;nan
41830;BME280;38614;43.472;23.936;2022-07-29T09:42:48;100186.16;;;33.90;nan
41830;BME280;38614;43.472;23.936;2022-07-29T09:48:25;100135.28;;;34.30;nan
41830;BME280;38614;43.472;23.936;2022-07-29T09:54:23;100148.94;;;34.88;nan
41830;BME280;38614;43.472;23.936;2022-07-29T10:03:05;100123.94;;;34.77;nan
41830;BME280;38614;43.472;23.936;2022-07-29T10:06:06;100133.84;;;34.81;nan
41830;BME280;38614;43.472;23.936;2022-07-29T10:08:54;100119.34;;;34.51;nan
41830;BME280;38614;43.472;23.936;2022-07-29T10:12:02;100122.84;;;34.85;nan
41830;BME280;38614;43.472;23.936;2022-07-29T10:14:53;100120.19;;;34.99;nan
41830;BME280;38614;43.472;23.936;2022-07-29T10:17:41;100108.41;;;35.08;nan
41830;BME280;38614;43.472;23.936;2022-07-29T10:20:29;100100.22;;;35.23;nan
41830;BME280;38614;43.472;23.936;2022-07-29T15:45:04;99844.25;;;35.32;nan
41830;BME280;38614;43.472;23.936;2022-07-29T16:27:16;99888.31;;;33.76;nan
41830;BME280;38614;43.472;23.936;2022-07-29T16:30:05;99886.31;;;33.31;nan
41830;BME280;38614;43.472;23.936;2022-07-29T16:32:56;99892.63;;;32.96;nan
41830;BME280;38614;43.472;23.936;2022-07-29T16:35:43;99911.03;;;32.73;nan
41830;BME280;38614;43.472;23.936;2022-07-29T16:38:34;99904.00;;;32.40;nan
41830;BME280;38614;43.472;23.936;2022-07-29T16:41:24;99883.69;;;32.32;nan
41830;BME280;38614;43.472;23.936;2022-07-29T16:44:11;99893.25;;;32.24;nan
41830;BME280;38614;43.472;23.936;2022-07-29T16:46:59;99882.81;;;32.04;nan
41830;BME280;38614;43.472;23.936;2022-07-29T16:49:48;99883.25;;;31.86;nan
41830;BME280;38614;43.472;23.936;2022-07-29T16:55:24;99858.72;;;31.73;nan
41830;BME280;38614;43.472;23.936;2022-07-29T16:58:12;99889.03;;;32.02;nan
41830;BME280;38614;43.472;23.936;2022-07-29T17:01:00;99108.47;;;26.79;nan
41830;BME280;38614;43.472;23.936;2022-07-29T17:06:53;99894.31;;;31.67;nan
41830;BME280;38614;43.472;23.936;2022-07-29T17:09:42;99887.75;;;31.61;nan
41830;BME280;38614;43.472;23.936;2022-07-29T17:12:30;99876.56;;;31.52;nan
41830;BME280;38614;43.472;23.936;2022-07-29T17:18:06;99881.44;;;31.45;nan
41830;BME280;38614;43.472;23.936;2022-07-29T17:20:58;99879.31;;;31.35;nan
41830;BME280;38614;43.472;23.936;2022-07-29T17:23:47;99874.03;;;31.22;nan
41830;BME280;38614;43.472;23.936;2022-07-29T17:29:26;99879.59;;;31.05;nan
41830;BME280;38614;43.472;23.936;2022-07-29T17:32:14;99893.44;;;30.86;nan
41830;BME280;38614;43.472;23.936;2022-07-29T17:37:50;99874.84;;;30.65;nan
41830;BME280;38614;43.472;23.936;2022-07-29T17:40:38;99878.75;;;30.68;nan
41830;BME280;38614;43.472;23.936;2022-07-29T17:43:26;99846.31;;;30.39;nan
41830;BME280;38614;43.472;23.936;2022-07-29T17:46:14;99873.94;;;30.53;nan
41830;BME280;38614;43.472;23.936;2022-07-29T17:49:02;99877.28;;;30.52;nan
41830;BME280;38614;43.472;23.936;2022-07-29T17:51:54;99861.09;;;30.38;nan
41830;BME280;38614;43.472;23.936;2022-07-29T17:54:46;99886.63;;;30.52;nan
41830;BME280;38614;43.472;23.936;2022-07-29T17:57:35;99883.66;;;30.41;nan
41830;BME280;38614;43.472;23.936;2022-07-29T18:00:23;99892.78;;;30.45;nan
41830;BME280;38614;43.472;23.936;2022-07-29T18:03:11;99894.50;;;30.37;nan
41830;BME280;38614;43.472;23.936;2022-07-29T18:05:59;99865.75;;;30.15;nan
41830;BME280;38614;43.472;23.936;2022-07-29T18:08:47;99863.91;;;30.12;nan
41830;BME280;38614;43.472;23.936;2022-07-29T18:11:35;99891.47;;;30.20;nan
41830;BME280;38614;43.472;23.936;2022-07-29T18:14:23;99870.38;;;29.92;nan
41830;BME280;38614;43.472;23.936;2022-07-29T18:17:11;99900.19;;;30.11;nan
41830;BME280;38614;43.472;23.936;2022-07-29T18:19:59;99908.63;;;30.05;nan
41830;BME280;38614;43.472;23.936;2022-07-29T18:22:47;99883.22;;;29.82;nan
41830;BME280;38614;43.472;23.936;2022-07-29T18:25:35;99898.00;;;29.86;nan
41830;BME280;38614;43.472;23.936;2022-07-29T18:28:23;99917.75;;;29.89;nan
41830;BME280;38614;43.472;23.936;2022-07-29T18:31:11;99912.69;;;29.78;nan
41830;BME280;38614;43.472;23.936;2022-07-29T18:33:59;99923.78;;;29.76;nan
41830;BME280;38614;43.472;23.936;2022-07-29T18:39:35;99911.19;;;29.63;nan
41830;BME280;38614;43.472;23.936;2022-07-29T18:42:23;99921.50;;;29.60;nan
41830;BME280;38614;43.472;23.936;2022-07-29T18:45:10;99905.72;;;29.44;nan
41830;BME280;38614;43.472;23.936;2022-07-29T18:51:00;99939.09;;;29.44;nan
41830;BME280;38614;43.472;23.936;2022-07-29T18:53:47;99940.19;;;29.32;nan
41830;BME280;38614;43.472;23.936;2022-07-29T18:56:38;99929.00;;;29.28;nan
41830;BME280;38614;43.472;23.936;2022-07-29T18:59:26;99936.38;;;29.35;nan
41830;BME280;38614;43.472;23.936;2022-07-29T19:02:14;99935.06;;;29.36;nan
41830;BME280;38614;43.472;23.936;2022-07-29T19:05:08;99941.66;;;29.27;nan
41830;BME280;38614;43.472;23.936;2022-07-29T19:07:56;99947.56;;;29.23;nan
41830;BME280;38614;43.472;23.936;2022-07-29T19:13:33;99928.34;;;29.04;nan
41830;BME280;38614;43.472;23.936;2022-07-29T19:16:23;99946.13;;;29.13;nan
41830;BME280;38614;43.472;23.936;2022-07-29T19:19:11;99948.75;;;29.17;nan
41830;BME280;38614;43.472;23.936;2022-07-29T19:21:59;99943.84;;;29.03;nan
41830;BME280;38614;43.472;23.936;2022-07-29T19:24:47;99933.66;;;28.96;nan
41830;BME280;38614;43.472;23.936;2022-07-29T19:36:01;99964.91;;;28.81;nan
41830;BME280;38614;43.472;23.936;2022-07-29T19:41:37;99946.34;;;28.56;nan
41830;BME280;38614;43.472;23.936;2022-07-29T19:44:25;99958.41;;;28.66;nan
41830;BME280;38614;43.472;23.936;2022-07-29T19:47:13;99974.50;;;28.69;nan
41830;BME280;38614;43.472;23.936;2022-07-29T19:50:03;99919.50;;;28.43;nan
41830;BME280;38614;43.472;23.936;2022-07-29T19:52:51;99961.47;;;28.62;nan
41830;BME280;38614;43.472;23.936;2022-07-29T19:55:39;99948.41;;;28.56;nan
41830;BME280;38614;43.472;23.936;2022-07-29T19:58:28;99955.06;;;28.53;nan
41830;BME280;38614;43.472;23.936;2022-07-29T20:01:16;99954.38;;;28.43;nan
41830;BME280;38614;43.472;23.936;2022-07-29T20:04:03;99937.69;;;28.36;nan
41830;BME280;38614;43.472;23.936;2022-07-29T20:06:51;99938.88;;;28.29;nan
41830;BME280;38614;43.472;23.936;2022-07-29T20:09:42;99942.50;;;28.30;nan
41830;BME280;38614;43.472;23.936;2022-07-29T20:12:32;99938.31;;;28.16;nan
41830;BME280;38614;43.472;23.936;2022-07-29T20:15:20;99928.47;;;28.02;nan
41830;BME280;38614;43.472;23.936;2022-07-29T20:18:07;99922.44;;;27.86;nan
41830;BME280;38614;43.472;23.936;2022-07-29T20:20:56;99931.69;;;27.95;nan
41830;BME280;38614;43.472;23.936;2022-07-29T20:23:46;99948.88;;;27.92;nan
41830;BME280;38614;43.472;23.936;2022-07-29T20:26:34;99950.53;;;27.83;nan
41830;BME280;38614;43.472;23.936;2022-07-29T20:29:21;99929.03;;;27.68;nan
41830;BME280;38614;43.472;23.936;2022-07-29T20:32:09;99944.84;;;27.83;nan
41830;BME280;38614;43.472;23.936;2022-07-29T20:34:58;99950.09;;;27.76;nan
41830;BME280;38614;43.472;23.936;2022-07-29T20:37:49;99933.44;;;27.60;nan
41830;BME280;38614;43.472;23.936;2022-07-29T20:40:45;99939.41;;;27.71;nan
41830;BME280;38614;43.472;23.936;2022-07-29T20:43:33;99927.03;;;27.50;nan
41830;BME280;38614;43.472;23.936;2022-07-29T20:46:27;99935.00;;;27.61;nan
41830;BME280;38614;43.472;23.936;2022-07-29T20:49:17;99945.78;;;27.57;nan
41830;BME280;38614;43.472;23.936;2022-07-29T20:52:05;99952.03;;;27.61;nan
41830;BME280;38614;43.472;23.936;2022-07-29T20:54:52;99934.09;;;27.54;nan
41830;BME280;38614;43.472;23.936;2022-07-29T20:57:40;99910.88;;;27.32;nan
41830;BME280;38614;43.472;23.936;2022-07-29T21:00:28;99923.75;;;27.42;nan
41830;BME280;38614;43.472;23.936;2022-07-29T21:03:19;99933.84;;;27.43;nan
41830;BME280;38614;43.472;23.936;2022-07-29T21:06:09;99941.72;;;27.48;nan
41830;BME280;38614;43.472;23.936;2022-07-29T21:08:57;99924.00;;;27.30;nan
41830;BME280;38614;43.472;23.936;2022-07-29T21:11:47;99910.53;;;27.06;nan
41830;BME280;38614;43.472;23.936;2022-07-29T21:14:35;99938.03;;;27.24;nan
41830;BME280;38614;43.472;23.936;2022-07-29T21:17:22;99934.44;;;27.14;nan
41830;BME280;38614;43.472;23.936;2022-07-29T21:20:11;99937.94;;;27.00;nan
41830;BME280;38614;43.472;23.936;2022-07-29T21:22:58;99942.19;;;26.95;nan
41830;BME280;38614;43.472;23.936;2022-07-29T21:25:46;99931.84;;;26.74;nan
41830;BME280;38614;43.472;23.936;2022-07-29T21:28:34;99946.63;;;26.78;nan
41830;BME280;38614;43.472;23.936;2022-07-29T21:31:23;99953.88;;;26.70;nan
41830;BME280;38614;43.472;23.936;2022-07-29T21:34:11;99960.34;;;26.61;nan
41830;BME280;38614;43.472;23.936;2022-07-29T21:37:00;99930.00;;;26.34;nan
41830;BME280;38614;43.472;23.936;2022-07-29T21:39:48;99946.38;;;26.39;nan
41830;BME280;38614;43.472;23.936;2022-07-29T21:42:36;99960.03;;;26.32;nan
41830;BME280;38614;43.472;23.936;2022-07-29T21:45:23;99954.06;;;26.30;nan
41830;BME280;38614;43.472;23.936;2022-07-29T21:48:13;99939.09;;;26.20;nan
41830;BME280;38614;43.472;23.936;2022-07-29T21:51:01;99953.91;;;26.06;nan
41830;BME280;38614;43.472;23.936;2022-07-29T21:53:49;99934.38;;;25.99;nan
41830;BME280;38614;43.472;23.936;2022-07-29T21:56:39;99898.19;;;25.84;nan
41830;BME280;38614;43.472;23.936;2022-07-29T21:59:26;99940.03;;;25.99;nan
41830;BME280;38614;43.472;23.936;2022-07-29T22:02:14;99903.03;;;25.75;nan
41830;BME280;38614;43.472;23.936;2022-07-29T22:05:04;99941.91;;;25.93;nan
41830;BME280;38614;43.472;23.936;2022-07-29T22:07:52;99929.31;;;25.84;nan
41830;BME280;38614;43.472;23.936;2022-07-29T22:10:40;99947.28;;;26.00;nan
41830;BME280;38614;43.472;23.936;2022-07-29T22:13:28;99925.50;;;25.69;nan
41830;BME280;38614;43.472;23.936;2022-07-29T22:16:16;99925.31;;;25.64;nan
41830;BME280;38614;43.472;23.936;2022-07-29T22:19:03;99942.47;;;25.69;nan
41830;BME280;38614;43.472;23.936;2022-07-29T22:21:51;99936.94;;;25.56;nan
41830;BME280;38614;43.472;23.936;2022-07-29T22:24:39;99930.78;;;25.49;nan
41830;BME280;38614;43.472;23.936;2022-07-29T22:27:26;99938.94;;;25.47;nan
41830;BME280;38614;43.472;23.936;2022-07-29T22:30:17;99936.59;;;25.45;nan
41830;BME280;38614;43.472;23.936;2022-07-29T22:33:04;99895.81;;;25.24;nan
41830;BME280;38614;43.472;23.936;2022-07-29T22:35:52;99913.59;;;25.34;nan
41830;BME280;38614;43.472;23.936;2022-07-29T22:38:43;99925.72;;;25.35;nan
41830;BME280;38614;43.472;23.936;2022-07-29T22:41:35;99913.56;;;25.25;nan
41830;BME280;38614;43.472;23.936;2022-07-29T22:44:22;99926.00;;;25.27;nan
41830;BME280;38614;43.472;23.936;2022-07-29T22:47:10;99905.81;;;25.07;nan
41830;BME280;38614;43.472;23.936;2022-07-29T22:50:14;99908.09;;;24.99;nan
41830;BME280;38614;43.472;23.936;2022-07-29T22:53:08;99915.53;;;25.06;nan
41830;BME280;38614;43.472;23.936;2022-07-29T22:56:04;99929.56;;;25.19;nan